Time;durP1;ratioP1;P1;durP2;ratioP2;P2;SDS_P1;SDS_P2;PMS_P1;PMS_P2;Temp;Humidity;BMP_temperature;BMP_pressure;BME280_temperature;BME280_humidity;BME280_pressure;Samples;Min_cycle;Max_cycle;Signal;HPM_P1;HPM_P2
2021/11/29 00:00:25;;;;;;;;;29.00;24.75;;;;;;;;5072387;27;49911;-68
2021/11/29 00:02:53;;;;;;;;;24.50;23.50;;;;;;;;5072592;28;49652;-68
2021/11/29 00:05:20;;;;;;;;;34.75;31.50;;;;;;;;5071952;27;50545;-69
2021/11/29 00:07:45;;;;;;;;;32.00;31.50;;;;;;;;5071801;28;49697;-68
2021/11/29 00:10:10;;;;;;;;;32.25;28.00;;;;;;;;5072430;28;49718;-68
2021/11/29 00:12:36;;;;;;;;;34.00;29.00;;;;;;;;5072493;27;49991;-68
2021/11/29 00:15:02;;;;;;;;;38.50;32.25;;;;;;;;5072167;27;50652;-68
2021/11/29 00:17:27;;;;;;;;;31.00;28.25;;;;;;;;5070643;28;49731;-68
2021/11/29 00:19:53;;;;;;;;;39.50;33.00;;;;;;;;5070701;28;49703;-68
2021/11/29 00:22:18;;;;;;;;;27.75;24.25;;;;;;;;5072273;27;49580;-68
2021/11/29 00:24:43;;;;;;;;;29.00;28.25;;;;;;;;5071683;28;50804;-68
2021/11/29 00:27:08;;;;;;;;;30.00;27.50;;;;;;;;5072115;27;49944;-68
2021/11/29 00:29:34;;;;;;;;;26.25;26.00;;;;;;;;5072290;27;49630;-68
2021/11/29 00:31:59;;;;;;;;;30.50;26.50;;;;;;;;5072252;27;49711;-68
2021/11/29 00:34:24;;;;;;;;;32.50;32.50;;;;;;;;5071388;27;49957;-68
2021/11/29 00:36:50;;;;;;;;;26.50;26.25;;;;;;;;5071923;27;49920;-68
2021/11/29 00:39:17;;;;;;;;;34.75;30.50;;;;;;;;5071710;27;50359;-68
2021/11/29 00:41:42;;;;;;;;;29.00;26.75;;;;;;;;5072041;28;49679;-68
2021/11/29 00:44:07;;;;;;;;;31.25;25.75;;;;;;;;5071562;27;49945;-68
2021/11/29 00:46:32;;;;;;;;;27.75;26.50;;;;;;;;5071937;27;49797;-67
2021/11/29 00:48:57;;;;;;;;;30.00;29.50;;;;;;;;5071647;27;49703;-68
2021/11/29 00:51:23;;;;;;;;;30.75;27.50;;;;;;;;5071984;27;49753;-68
2021/11/29 00:53:48;;;;;;;;;31.75;28.50;;;;;;;;5071320;28;50557;-68
2021/11/29 00:56:15;;;;;;;;;21.00;20.75;;;;;;;;5071584;27;49996;-68
2021/11/29 00:58:40;;;;;;;;;27.00;26.25;;;;;;;;5071742;28;49640;-68
2021/11/29 01:01:05;;;;;;;;;31.50;27.25;;;;;;;;5071818;27;49846;-68
2021/11/29 01:03:30;;;;;;;;;29.50;27.00;;;;;;;;5071561;27;49896;-68
2021/11/29 01:05:55;;;;;;;;;23.25;21.50;;;;;;;;5071173;28;49747;-68
2021/11/29 01:08:21;;;;;;;;;33.50;29.50;;;;;;;;5071508;27;49683;-68
2021/11/29 01:10:46;;;;;;;;;23.00;23.00;;;;;;;;5071634;28;49796;-68
2021/11/29 01:13:11;;;;;;;;;33.25;27.50;;;;;;;;5071176;27;49981;-68
2021/11/29 01:15:37;;;;;;;;;24.25;24.25;;;;;;;;5069863;28;49739;-68
2021/11/29 01:18:08;;;;;;;;;32.00;22.50;;;;;;;;5070706;27;50034;-68
2021/11/29 01:20:34;;;;;;;;;27.25;26.25;;;;;;;;5071111;28;50013;-68
2021/11/29 01:22:59;;;;;;;;;23.25;20.25;;;;;;;;5069468;28;52166;-68
2021/11/29 01:25:25;;;;;;;;;29.75;28.00;;;;;;;;5071227;28;49787;-68
2021/11/29 01:27:50;;;;;;;;;36.75;32.75;;;;;;;;5071207;27;49685;-69
2021/11/29 01:30:15;;;;;;;;;27.75;25.50;;;;;;;;5069811;28;49862;-67
2021/11/29 01:32:40;;;;;;;;;24.75;24.50;;;;;;;;5070992;28;50542;-68
2021/11/29 01:35:06;;;;;;;;;31.75;26.50;;;;;;;;5070573;28;49890;-76
2021/11/29 01:37:31;;;;;;;;;22.75;20.50;;;;;;;;5071386;27;49887;-76
2021/11/29 01:39:56;;;;;;;;;26.00;22.75;;;;;;;;5071109;27;49767;-76
2021/11/29 01:42:22;;;;;;;;;29.00;23.25;;;;;;;;5070784;27;50791;-77
2021/11/29 01:44:47;;;;;;;;;21.00;19.25;;;;;;;;5071055;27;49797;-77
2021/11/29 01:47:12;;;;;;;;;20.50;19.00;;;;;;;;5070929;27;49748;-74
2021/11/29 01:49:37;;;;;;;;;18.75;17.25;;;;;;;;5070832;27;49834;-68
2021/11/29 01:52:03;;;;;;;;;26.75;23.25;;;;;;;;5070494;27;50443;-68
2021/11/29 01:54:29;;;;;;;;;26.50;24.00;;;;;;;;5070732;27;49874;-67
2021/11/29 01:56:55;;;;;;;;;22.25;20.25;;;;;;;;5070865;27;49721;-68
2021/11/29 01:59:20;;;;;;;;;22.25;20.00;;;;;;;;5070914;27;49737;-68
2021/11/29 02:01:45;;;;;;;;;21.25;19.00;;;;;;;;5069261;28;50891;-68
2021/11/29 02:04:12;;;;;;;;;18.50;16.75;;;;;;;;5070336;27;49746;-68
2021/11/29 02:06:37;;;;;;;;;21.75;21.75;;;;;;;;5070542;28;49628;-68
2021/11/29 02:09:04;;;;;;;;;24.00;19.50;;;;;;;;5070754;27;49545;-68
2021/11/29 02:11:29;;;;;;;;;21.25;19.00;;;;;;;;5070520;27;49636;-68
2021/11/29 02:13:55;;;;;;;;;25.00;19.25;;;;;;;;5070377;28;49767;-68
2021/11/29 02:16:20;;;;;;;;;20.00;16.00;;;;;;;;5070691;27;49585;-67
2021/11/29 02:18:46;;;;;;;;;21.50;17.25;;;;;;;;5070605;27;49762;-67
2021/11/29 02:21:16;;;;;;;;;23.50;21.25;;;;;;;;5070151;28;50466;-68
2021/11/29 02:23:43;;;;;;;;;19.25;18.75;;;;;;;;5070364;28;50296;-68
2021/11/29 02:26:09;;;;;;;;;18.50;16.00;;;;;;;;5070342;27;49898;-68
2021/11/29 02:28:35;;;;;;;;;15.50;15.25;;;;;;;;5070581;27;49645;-68
2021/11/29 02:31:00;;;;;;;;;23.25;20.25;;;;;;;;5072344;27;49822;-68
2021/11/29 02:33:29;;;;;;;;;19.75;18.75;;;;;;;;5073774;27;49695;-68
2021/11/29 02:35:54;;;;;;;;;22.25;19.50;;;;;;;;5073677;27;49198;-67
2021/11/29 02:38:19;;;;;;;;;22.50;21.50;;;;;;;;5074041;27;50087;-68
2021/11/29 02:40:45;;;;;;;;;21.75;20.50;;;;;;;;5073472;27;50254;-71
2021/11/29 02:43:10;;;;;;;;;24.50;22.50;;;;;;;;5071904;28;49823;-68
2021/11/29 02:45:36;;;;;;;;;18.50;16.75;;;;;;;;5073695;27;49554;-68
2021/11/29 02:48:01;;;;;;;;;23.50;20.00;;;;;;;;5073723;27;49735;-68
2021/11/29 02:50:26;;;;;;;;;21.75;18.00;;;;;;;;5073300;27;49836;-68
2021/11/29 02:52:51;;;;;;;;;22.75;19.75;;;;;;;;5073572;27;49770;-68
2021/11/29 02:55:17;;;;;;;;;24.50;20.25;;;;;;;;5073542;27;49657;-68
2021/11/29 02:57:42;;;;;;;;;22.00;16.75;;;;;;;;5073592;27;49953;-68
2021/11/29 03:00:08;;;;;;;;;18.00;17.75;;;;;;;;5073285;27;50618;-68
2021/11/29 03:02:34;;;;;;;;;19.75;18.50;;;;;;;;5073274;27;49952;-69
2021/11/29 03:05:00;;;;;;;;;18.50;18.00;;;;;;;;5073158;27;49718;-69
2021/11/29 03:07:25;;;;;;;;;18.25;18.25;;;;;;;;5073776;27;49890;-69
2021/11/29 03:09:51;;;;;;;;;16.00;16.00;;;;;;;;5073263;28;50350;-69
2021/11/29 03:12:16;;;;;;;;;16.00;14.75;;;;;;;;5073293;27;49684;-68
2021/11/29 03:14:41;;;;;;;;;20.25;19.00;;;;;;;;5071644;28;50035;-68
2021/11/29 03:17:07;;;;;;;;;18.50;16.25;;;;;;;;5073224;27;49602;-68
2021/11/29 03:19:33;;;;;;;;;18.00;13.25;;;;;;;;5072717;27;50290;-68
2021/11/29 03:21:59;;;;;;;;;16.50;15.00;;;;;;;;5073057;27;49805;-69
2021/11/29 03:24:24;;;;;;;;;19.75;16.00;;;;;;;;5073086;27;49769;-69
2021/11/29 03:26:50;;;;;;;;;17.25;15.00;;;;;;;;5073331;28;49638;-69
2021/11/29 03:29:16;;;;;;;;;12.00;12.00;;;;;;;;5072882;28;49697;-68
2021/11/29 03:31:43;;;;;;;;;18.25;16.50;;;;;;;;5073121;27;49665;-68
2021/11/29 03:34:11;;;;;;;;;12.25;12.25;;;;;;;;5072699;27;49868;-68
2021/11/29 03:36:37;;;;;;;;;12.75;12.00;;;;;;;;5073214;27;50014;-77
2021/11/29 03:39:05;;;;;;;;;17.00;15.25;;;;;;;;5071395;28;52619;-75
2021/11/29 03:41:30;;;;;;;;;17.00;17.00;;;;;;;;5071661;28;49879;-75
2021/11/29 03:43:55;;;;;;;;;16.00;16.00;;;;;;;;5072935;27;49921;-75
2021/11/29 03:46:20;;;;;;;;;14.25;14.25;;;;;;;;5071660;28;49554;-68
2021/11/29 03:48:46;;;;;;;;;16.25;14.75;;;;;;;;5070696;28;52272;-69
2021/11/29 03:51:11;;;;;;;;;10.50;10.25;;;;;;;;5072765;27;49636;-69
2021/11/29 03:53:36;;;;;;;;;16.00;12.00;;;;;;;;5071313;28;49936;-68
2021/11/29 03:56:02;;;;;;;;;14.25;14.25;;;;;;;;5072740;27;49759;-69
2021/11/29 03:58:27;;;;;;;;;11.25;11.00;;;;;;;;5072410;28;49964;-69
2021/11/29 04:00:52;;;;;;;;;11.50;9.50;;;;;;;;5072399;28;50133;-68
2021/11/29 04:03:18;;;;;;;;;10.25;8.50;;;;;;;;5072422;28;49629;-68
2021/11/29 04:05:43;;;;;;;;;11.50;8.50;;;;;;;;5072359;28;49625;-71
2021/11/29 04:08:08;;;;;;;;;13.25;9.50;;;;;;;;5072205;28;49983;-69
2021/11/29 04:10:34;;;;;;;;;12.00;11.50;;;;;;;;5072556;27;49687;-68
2021/11/29 04:12:59;;;;;;;;;13.75;12.25;;;;;;;;5072278;27;49787;-69
2021/11/29 04:15:24;;;;;;;;;8.75;8.75;;;;;;;;5071066;28;49758;-69
2021/11/29 04:17:49;;;;;;;;;11.00;11.00;;;;;;;;5072151;27;50089;-68
2021/11/29 04:20:15;;;;;;;;;11.00;7.75;;;;;;;;5071890;27;49835;-68
2021/11/29 04:22:45;;;;;;;;;15.75;13.50;;;;;;;;5071946;27;49674;-68
2021/11/29 04:25:11;;;;;;;;;16.75;15.25;;;;;;;;5072354;27;49763;-68
2021/11/29 04:27:36;;;;;;;;;11.50;10.50;;;;;;;;5072025;27;50414;-68
2021/11/29 04:30:08;;;;;;;;;15.00;11.00;;;;;;;;5071986;28;49495;-68
2021/11/29 04:32:33;;;;;;;;;15.75;10.00;;;;;;;;5071893;28;50083;-68
2021/11/29 04:34:58;;;;;;;;;8.50;8.50;;;;;;;;5072030;27;50169;-68
2021/11/29 04:37:23;;;;;;;;;12.00;12.00;;;;;;;;5071740;27;50695;-68
2021/11/29 04:39:49;;;;;;;;;5.25;5.25;;;;;;;;5071726;27;49584;-70
2021/11/29 04:42:14;;;;;;;;;11.75;10.50;;;;;;;;5071737;27;49791;-69
2021/11/29 04:44:39;;;;;;;;;9.50;9.50;;;;;;;;5071933;27;49570;-69
2021/11/29 04:47:04;;;;;;;;;11.25;11.25;;;;;;;;5071675;27;49867;-69
2021/11/29 04:49:30;;;;;;;;;13.50;13.50;;;;;;;;5071606;28;49712;-68
2021/11/29 04:51:55;;;;;;;;;8.00;6.00;;;;;;;;5071770;27;49686;-69
2021/11/29 04:54:20;;;;;;;;;7.75;7.75;;;;;;;;5071663;27;49758;-68
2021/11/29 04:56:46;;;;;;;;;7.75;7.75;;;;;;;;5071455;27;50770;-68
2021/11/29 04:59:11;;;;;;;;;14.50;11.25;;;;;;;;5071366;27;49733;-67
2021/11/29 05:01:36;;;;;;;;;8.50;8.50;;;;;;;;5071699;27;49753;-68
2021/11/29 05:04:02;;;;;;;;;12.25;11.25;;;;;;;;5069957;28;49963;-69
2021/11/29 05:06:27;;;;;;;;;14.50;11.50;;;;;;;;5071275;28;50482;-68
2021/11/29 05:08:52;;;;;;;;;12.00;11.00;;;;;;;;5071321;27;49859;-68
2021/11/29 05:11:17;;;;;;;;;13.00;12.00;;;;;;;;5071448;27;49756;-68
2021/11/29 05:13:43;;;;;;;;;11.75;11.75;;;;;;;;5071551;27;49927;-69
2021/11/29 05:16:08;;;;;;;;;7.75;7.75;;;;;;;;5071151;27;49777;-68
2021/11/29 05:18:33;;;;;;;;;12.50;11.00;;;;;;;;5071070;28;49826;-69
2021/11/29 05:20:58;;;;;;;;;9.00;9.00;;;;;;;;5071495;28;49918;-68
2021/11/29 05:23:24;;;;;;;;;10.50;8.75;;;;;;;;5071368;27;50038;-68
2021/11/29 05:25:49;;;;;;;;;11.00;8.50;;;;;;;;5071303;27;50430;-68
2021/11/29 05:28:15;;;;;;;;;11.00;8.25;;;;;;;;5071297;27;49675;-68
2021/11/29 05:30:40;;;;;;;;;8.75;8.75;;;;;;;;5071019;27;49621;-68
2021/11/29 05:33:05;;;;;;;;;11.00;9.00;;;;;;;;5071421;28;49811;-68
2021/11/29 05:35:32;;;;;;;;;9.50;8.50;;;;;;;;5070917;27;50883;-68
2021/11/29 05:37:57;;;;;;;;;8.00;8.00;;;;;;;;5071135;27;49693;-68
2021/11/29 05:40:22;;;;;;;;;13.00;7.50;;;;;;;;5071211;28;49831;-68
2021/11/29 05:42:48;;;;;;;;;8.75;8.75;;;;;;;;5071074;27;49698;-69
2021/11/29 05:45:13;;;;;;;;;8.50;8.00;;;;;;;;5070682;28;50866;-68
2021/11/29 05:47:39;;;;;;;;;8.75;8.75;;;;;;;;5070842;28;49671;-68
2021/11/29 05:50:06;;;;;;;;;12.75;11.00;;;;;;;;5073515;28;49824;-67
2021/11/29 05:52:32;;;;;;;;;13.75;10.50;;;;;;;;5070978;27;49738;-68
2021/11/29 05:54:57;;;;;;;;;8.50;8.50;;;;;;;;5070537;27;50608;-71
2021/11/29 05:57:22;;;;;;;;;6.00;6.00;;;;;;;;5070697;27;49793;-71
2021/11/29 05:59:47;;;;;;;;;11.25;10.00;;;;;;;;5070778;27;49798;-61
2021/11/29 06:02:13;;;;;;;;;11.25;11.00;;;;;;;;5070874;28;49629;-61
2021/11/29 06:04:38;;;;;;;;;7.00;7.00;;;;;;;;5070708;27;50365;-62
2021/11/29 06:07:03;;;;;;;;;9.00;9.00;;;;;;;;5074038;27;49593;-61
2021/11/29 06:09:28;;;;;;;;;8.00;8.00;;;;;;;;5074332;27;49735;-62
2021/11/29 06:11:54;;;;;;;;;11.25;8.75;;;;;;;;5073064;28;49679;-62
2021/11/29 06:14:19;;;;;;;;;8.75;8.75;;;;;;;;5073851;28;50277;-63
2021/11/29 06:16:45;;;;;;;;;17.50;13.00;;;;;;;;5074059;27;49850;-63
2021/11/29 06:19:10;;;;;;;;;18.00;14.25;;;;;;;;5073862;27;49964;-62
2021/11/29 06:21:35;;;;;;;;;13.50;12.50;;;;;;;;5074037;27;49856;-62
2021/11/29 06:24:00;;;;;;;;;18.25;14.75;;;;;;;;5073237;27;50547;-61
2021/11/29 06:26:26;;;;;;;;;19.75;16.00;;;;;;;;5073984;27;49629;-63
2021/11/29 06:28:51;;;;;;;;;11.00;9.50;;;;;;;;5074023;27;49793;-62
2021/11/29 06:31:16;;;;;;;;;11.00;9.00;;;;;;;;5074408;27;49786;-62
2021/11/29 06:33:42;;;;;;;;;18.00;13.25;;;;;;;;5073494;27;49823;-61
2021/11/29 06:36:07;;;;;;;;;13.75;11.25;;;;;;;;5073896;28;49734;-60
2021/11/29 06:38:33;;;;;;;;;14.00;12.00;;;;;;;;5074088;27;49820;-61
2021/11/29 06:40:58;;;;;;;;;10.50;8.00;;;;;;;;5073857;27;49704;-62
2021/11/29 06:43:24;;;;;;;;;13.25;12.25;;;;;;;;5073474;27;49775;-63
2021/11/29 06:45:50;;;;;;;;;13.00;13.00;;;;;;;;5073752;27;49959;-63
2021/11/29 06:48:16;;;;;;;;;11.50;11.50;;;;;;;;5073910;28;49983;-75
2021/11/29 06:50:41;;;;;;;;;12.75;12.00;;;;;;;;5072354;28;50382;-62
2021/11/29 06:53:06;;;;;;;;;18.75;15.50;;;;;;;;5073227;27;50381;-62
2021/11/29 06:55:32;;;;;;;;;9.00;9.00;;;;;;;;5074034;27;49781;-64
2021/11/29 06:57:58;;;;;;;;;15.25;15.00;;;;;;;;5073778;27;49988;-64
2021/11/29 07:00:24;;;;;;;;;14.75;14.75;;;;;;;;5071915;28;49778;-62
2021/11/29 07:02:50;;;;;;;;;15.25;15.25;;;;;;;;5073136;27;49869;-63
2021/11/29 07:05:15;;;;;;;;;17.25;14.75;;;;;;;;5073057;28;49809;-65
2021/11/29 07:07:41;;;;;;;;;20.25;15.50;;;;;;;;5073288;27;49818;-65
2021/11/29 07:10:06;;;;;;;;;19.00;18.00;;;;;;;;5072222;28;49849;-64
2021/11/29 07:12:33;;;;;;;;;12.00;12.00;;;;;;;;5072994;27;49757;-67
2021/11/29 07:14:58;;;;;;;;;21.25;20.25;;;;;;;;5073051;27;49836;-66
2021/11/29 07:17:23;;;;;;;;;25.25;21.25;;;;;;;;5071671;27;49759;-64
2021/11/29 07:19:53;;;;;;;;;24.75;22.25;;;;;;;;5073392;28;49924;-64
2021/11/29 07:22:19;;;;;;;;;22.00;22.00;;;;;;;;5072629;27;49868;-67
2021/11/29 07:24:45;;;;;;;;;22.75;18.25;;;;;;;;5072848;27;49723;-68
2021/11/29 07:27:10;;;;;;;;;25.75;21.50;;;;;;;;5072931;27;49691;-68
2021/11/29 07:29:35;;;;;;;;;21.00;19.75;;;;;;;;5071811;28;49989;-68
2021/11/29 07:32:00;;;;;;;;;22.25;21.00;;;;;;;;5072759;27;50539;-62
2021/11/29 07:34:26;;;;;;;;;25.50;21.25;;;;;;;;5071290;28;50036;-62
2021/11/29 07:36:51;;;;;;;;;26.25;26.00;;;;;;;;5072878;27;49981;-62
2021/11/29 07:39:16;;;;;;;;;28.25;23.00;;;;;;;;5071460;28;49826;-62
2021/11/29 07:41:42;;;;;;;;;20.50;20.50;;;;;;;;5073129;27;49928;-61
2021/11/29 07:44:07;;;;;;;;;26.75;24.50;;;;;;;;5071040;28;49833;-62
2021/11/29 07:46:33;;;;;;;;;22.50;20.50;;;;;;;;5071069;28;50010;-62
2021/11/29 07:49:00;;;;;;;;;23.25;23.00;;;;;;;;5071016;28;49663;-70
2021/11/29 07:51:25;;;;;;;;;19.75;16.75;;;;;;;;5072297;27;49726;-66
2021/11/29 07:53:52;;;;;;;;;21.50;17.25;;;;;;;;5072484;27;49778;-66
2021/11/29 07:56:17;;;;;;;;;22.00;19.25;;;;;;;;5072396;27;49770;-64
2021/11/29 07:58:42;;;;;;;;;23.00;21.25;;;;;;;;5073902;27;49585;-66
2021/11/29 08:01:08;;;;;;;;;25.00;20.00;;;;;;;;5072309;27;50598;-65
2021/11/29 08:03:34;;;;;;;;;20.00;17.75;;;;;;;;5072532;27;49908;-65
2021/11/29 08:05:59;;;;;;;;;16.75;15.75;;;;;;;;5072419;27;49848;-66
2021/11/29 08:08:24;;;;;;;;;25.50;23.00;;;;;;;;5072530;27;49652;-66
2021/11/29 08:10:50;;;;;;;;;19.50;19.50;;;;;;;;5071951;28;49766;-65
2021/11/29 08:13:15;;;;;;;;;23.50;21.25;;;;;;;;5072094;28;49774;-65
2021/11/29 08:15:40;;;;;;;;;20.00;19.00;;;;;;;;5071089;27;49798;-65
2021/11/29 08:18:07;;;;;;;;;21.50;20.50;;;;;;;;5070239;28;50028;-65
2021/11/29 08:20:33;;;;;;;;;22.75;21.25;;;;;;;;5069934;27;49944;-66
2021/11/29 08:22:58;;;;;;;;;24.25;19.00;;;;;;;;5069831;28;49799;-67
2021/11/29 08:25:23;;;;;;;;;23.50;21.75;;;;;;;;5070177;27;49972;-66
2021/11/29 08:27:49;;;;;;;;;26.25;23.50;;;;;;;;5070006;27;49781;-66
2021/11/29 08:30:16;;;;;;;;;27.75;24.00;;;;;;;;5070302;27;50250;-66
2021/11/29 08:32:42;;;;;;;;;26.75;22.50;;;;;;;;5071926;27;49730;-66
2021/11/29 08:35:08;;;;;;;;;30.50;23.25;;;;;;;;5071567;27;49752;-65
2021/11/29 08:37:33;;;;;;;;;20.50;18.50;;;;;;;;5072115;27;49822;-67
2021/11/29 08:39:58;;;;;;;;;19.00;19.00;;;;;;;;5071566;27;49726;-65
2021/11/29 08:42:24;;;;;;;;;22.75;21.50;;;;;;;;5071614;28;49815;-66
2021/11/29 08:44:49;;;;;;;;;26.00;20.75;;;;;;;;5071901;27;49596;-65
2021/11/29 08:47:14;;;;;;;;;23.50;21.00;;;;;;;;5071836;28;49753;-66
2021/11/29 08:49:43;;;;;;;;;21.75;19.75;;;;;;;;5071359;27;50584;-66
2021/11/29 08:52:08;;;;;;;;;25.50;24.25;;;;;;;;5071554;28;49711;-66
2021/11/29 08:54:33;;;;;;;;;28.75;21.00;;;;;;;;5071416;28;50106;-65
2021/11/29 08:56:58;;;;;;;;;18.50;15.50;;;;;;;;5071840;27;49953;-66
2021/11/29 08:59:23;;;;;;;;;19.00;19.00;;;;;;;;5071402;27;50442;-66
2021/11/29 09:01:50;;;;;;;;;19.00;19.00;;;;;;;;5071571;27;49919;-65
2021/11/29 09:04:16;;;;;;;;;17.75;17.75;;;;;;;;5071302;27;49932;-66
2021/11/29 09:06:41;;;;;;;;;29.75;21.00;;;;;;;;5071567;27;49655;-66
2021/11/29 09:09:07;;;;;;;;;27.25;19.25;;;;;;;;5071442;28;50564;-67
2021/11/29 09:11:32;;;;;;;;;21.75;20.25;;;;;;;;5071277;28;49562;-70
2021/11/29 09:13:58;;;;;;;;;26.25;20.50;;;;;;;;5071285;27;49605;-68
2021/11/29 09:16:24;;;;;;;;;26.50;24.75;;;;;;;;5071428;27;50445;-67
2021/11/29 09:18:49;;;;;;;;;26.00;23.00;;;;;;;;5070819;27;50499;-68
2021/11/29 09:21:16;;;;;;;;;26.50;25.25;;;;;;;;5070976;27;49789;-68
2021/11/29 09:23:42;;;;;;;;;24.50;24.50;;;;;;;;5071511;27;49815;-65
2021/11/29 09:26:08;;;;;;;;;31.25;27.00;;;;;;;;5071288;27;49675;-66
2021/11/29 09:28:34;;;;;;;;;27.25;22.00;;;;;;;;5070845;28;49751;-65
2021/11/29 09:31:00;;;;;;;;;34.25;29.00;;;;;;;;5071523;27;49845;-66
2021/11/29 09:33:25;;;;;;;;;21.75;21.75;;;;;;;;5070795;28;50311;-66
2021/11/29 09:35:50;;;;;;;;;26.25;25.75;;;;;;;;5071337;27;49787;-65
2021/11/29 09:38:15;;;;;;;;;21.25;21.25;;;;;;;;5070680;28;49628;-65
2021/11/29 09:40:42;;;;;;;;;24.50;20.25;;;;;;;;5070108;28;49643;-67
2021/11/29 09:43:09;;;;;;;;;26.75;25.25;;;;;;;;5070946;27;49746;-67
2021/11/29 09:45:34;;;;;;;;;28.50;27.75;;;;;;;;5069501;28;49574;-67
2021/11/29 09:48:01;;;;;;;;;26.50;23.25;;;;;;;;5070755;27;49958;-67
2021/11/29 09:50:27;;;;;;;;;34.25;27.25;;;;;;;;5070596;27;49656;-66
2021/11/29 09:52:52;;;;;;;;;28.00;20.25;;;;;;;;5069585;28;49871;-67
2021/11/29 09:55:20;;;;;;;;;26.25;24.50;;;;;;;;5070855;27;49860;-65
2021/11/29 09:57:45;;;;;;;;;28.00;26.00;;;;;;;;5070911;27;50832;-65
2021/11/29 10:00:20;;;;;;;;;28.50;20.25;;;;;;;;5070877;27;49719;-65
2021/11/29 10:02:45;;;;;;;;;25.75;23.50;;;;;;;;5070663;27;49817;-65
2021/11/29 10:05:10;;;;;;;;;20.25;20.00;;;;;;;;5070675;27;49950;-65
2021/11/29 10:07:45;;;;;;;;;17.50;16.50;;;;;;;;5070446;28;49607;-64
2021/11/29 10:10:10;;;;;;;;;21.00;18.25;;;;;;;;5070638;28;49661;-65
2021/11/29 10:12:36;;;;;;;;;20.50;18.75;;;;;;;;5070715;28;49742;-70
2021/11/29 10:15:12;;;;;;;;;24.00;18.75;;;;;;;;5071025;27;49954;-66
2021/11/29 10:17:37;;;;;;;;;18.25;16.75;;;;;;;;5069778;27;50529;-64
2021/11/29 10:20:04;;;;;;;;;25.00;20.00;;;;;;;;5070413;27;49794;-64
2021/11/29 10:22:29;;;;;;;;;20.25;18.25;;;;;;;;5070346;27;49885;-65
2021/11/29 10:24:54;;;;;;;;;26.75;21.00;;;;;;;;5070599;27;49655;-65
2021/11/29 10:27:35;;;;;;;;;21.25;19.75;;;;;;;;5070186;28;50517;-63
2021/11/29 10:30:00;;;;;;;;;25.00;23.25;;;;;;;;5070133;27;49613;-66
2021/11/29 10:32:29;;;;;;;;;24.50;20.75;;;;;;;;5070263;28;49776;-65
2021/11/29 10:34:55;;;;;;;;;19.00;17.50;;;;;;;;5070191;28;49816;-64
2021/11/29 10:37:25;;;;;;;;;20.00;17.50;;;;;;;;5070619;27;49869;-65
2021/11/29 10:39:52;;;;;;;;;20.00;18.50;;;;;;;;5070651;27;49771;-66
2021/11/29 10:42:17;;;;;;;;;20.75;20.75;;;;;;;;5070364;27;49601;-66
2021/11/29 10:44:44;;;;;;;;;21.50;17.50;;;;;;;;5070203;28;49524;-65
2021/11/29 10:47:11;;;;;;;;;18.75;16.75;;;;;;;;5070080;27;49637;-66
2021/11/29 10:49:38;;;;;;;;;22.75;19.25;;;;;;;;5069904;27;49774;-65
2021/11/29 10:52:03;;;;;;;;;20.50;18.00;;;;;;;;5072510;27;49778;-65
2021/11/29 10:54:31;;;;;;;;;20.25;18.00;;;;;;;;5073710;27;49692;-66
2021/11/29 10:56:56;;;;;;;;;12.50;10.00;;;;;;;;5073334;28;49835;-68
2021/11/29 10:59:25;;;;;;;;;14.00;10.75;;;;;;;;5073377;27;49632;-65
2021/11/29 11:01:55;;;;;;;;;16.25;10.50;;;;;;;;5074056;28;50028;-65
2021/11/29 11:04:24;;;;;;;;;14.00;12.00;;;;;;;;5073609;28;49695;-65
2021/11/29 11:06:52;;;;;;;;;7.75;7.75;;;;;;;;5073910;28;49987;-65
2021/11/29 11:09:19;;;;;;;;;13.25;11.00;;;;;;;;5073278;27;49853;-65
2021/11/29 11:11:46;;;;;;;;;12.25;10.75;;;;;;;;5073385;27;49617;-65
2021/11/29 11:14:16;;;;;;;;;8.00;7.25;;;;;;;;5073363;27;50048;-68
2021/11/29 11:16:41;;;;;;;;;9.00;7.00;;;;;;;;5073159;27;50478;-68
2021/11/29 11:19:09;;;;;;;;;7.25;7.25;;;;;;;;5073054;27;49609;-67
2021/11/29 11:21:34;;;;;;;;;8.50;8.50;;;;;;;;5073478;27;49789;-67
2021/11/29 11:24:18;;;;;;;;;11.50;11.50;;;;;;;;5073536;27;49692;-68
2021/11/29 11:26:47;;;;;;;;;10.00;8.50;;;;;;;;5073005;27;51117;-69
2021/11/29 11:29:13;;;;;;;;;16.25;14.25;;;;;;;;5073120;27;49459;-68
2021/11/29 11:31:38;;;;;;;;;7.00;7.00;;;;;;;;5073463;27;50072;-69
2021/11/29 11:34:03;;;;;;;;;10.25;10.25;;;;;;;;5071748;28;49990;-69
2021/11/29 11:36:29;;;;;;;;;11.50;9.25;;;;;;;;5072661;27;50515;-69
2021/11/29 11:39:02;;;;;;;;;9.75;9.75;;;;;;;;5072864;27;49812;-69
2021/11/29 11:41:27;;;;;;;;;8.50;8.50;;;;;;;;5073022;27;49659;-67
2021/11/29 11:43:52;;;;;;;;;14.00;11.50;;;;;;;;5072956;27;49665;-67
2021/11/29 11:46:18;;;;;;;;;11.75;9.50;;;;;;;;5072854;27;50441;-69
2021/11/29 11:48:44;;;;;;;;;11.75;10.50;;;;;;;;5073073;27;49926;-68
2021/11/29 11:51:10;;;;;;;;;15.25;13.00;;;;;;;;5072391;28;49768;-67
2021/11/29 11:53:38;;;;;;;;;14.00;11.00;;;;;;;;5073132;28;49847;-67
2021/11/29 11:56:03;;;;;;;;;7.25;5.75;;;;;;;;5072806;27;50271;-67
2021/11/29 11:58:35;;;;;;;;;7.75;7.00;;;;;;;;5072831;28;49696;-67
2021/11/29 12:01:06;;;;;;;;;8.50;8.00;;;;;;;;5072647;27;49968;-68
2021/11/29 12:03:37;;;;;;;;;5.00;3.00;;;;;;;;5072315;27;49983;-66
2021/11/29 12:06:05;;;;;;;;;5.50;5.50;;;;;;;;5072645;27;50694;-67
2021/11/29 12:08:48;;;;;;;;;10.50;7.00;;;;;;;;5072422;27;49628;-67
2021/11/29 12:11:23;;;;;;;;;6.75;5.50;;;;;;;;5072493;27;49728;-67
2021/11/29 12:13:48;;;;;;;;;5.50;5.00;;;;;;;;5072623;27;49514;-66
2021/11/29 12:16:28;;;;;;;;;7.50;7.50;;;;;;;;5072274;27;49794;-67
2021/11/29 12:18:53;;;;;;;;;7.25;6.25;;;;;;;;5071025;28;49648;-67
2021/11/29 12:21:19;;;;;;;;;9.25;7.00;;;;;;;;5072045;28;49797;-67
2021/11/29 12:23:44;;;;;;;;;6.25;6.25;;;;;;;;5072588;28;49673;-67
2021/11/29 12:26:09;;;;;;;;;9.50;9.50;;;;;;;;5072068;27;49901;-68
2021/11/29 12:28:36;;;;;;;;;7.00;7.00;;;;;;;;5072003;27;49511;-67
2021/11/29 12:31:02;;;;;;;;;6.00;6.00;;;;;;;;5072274;27;49961;-68
2021/11/29 12:33:42;;;;;;;;;4.00;3.50;;;;;;;;5072738;27;49929;-67
2021/11/29 12:36:07;;;;;;;;;7.50;6.25;;;;;;;;5071793;27;49716;-67
2021/11/29 12:38:44;;;;;;;;;7.25;5.00;;;;;;;;5072020;27;49905;-67
2021/11/29 12:41:09;;;;;;;;;9.75;6.00;;;;;;;;5071898;27;49799;-67
2021/11/29 12:43:46;;;;;;;;;3.50;3.50;;;;;;;;5072100;27;49898;-67
2021/11/29 12:46:42;;;;;;;;;8.25;7.50;;;;;;;;5071751;27;50483;-67
2021/11/29 12:49:08;;;;;;;;;9.75;5.75;;;;;;;;5062752;28;49741;-67
2021/11/29 12:51:41;;;;;;;;;6.25;6.25;;;;;;;;5071568;27;49842;-68
2021/11/29 12:54:26;;;;;;;;;6.00;4.50;;;;;;;;5072197;28;49881;-67
2021/11/29 12:57:10;;;;;;;;;9.25;7.50;;;;;;;;5071548;28;50524;-67
2021/11/29 12:59:51;;;;;;;;;2.75;2.75;;;;;;;;5071717;27;49671;-66
2021/11/29 13:02:34;;;;;;;;;5.25;3.00;;;;;;;;5071647;27;49760;-67
2021/11/29 13:05:00;;;;;;;;;3.50;3.50;;;;;;;;5070054;28;50014;-67
2021/11/29 13:07:45;;;;;;;;;5.25;5.00;;;;;;;;5071695;28;49596;-67
2021/11/29 13:10:29;;;;;;;;;5.00;5.00;;;;;;;;5071177;28;49590;-67
2021/11/29 13:13:22;;;;;;;;;5.75;5.75;;;;;;;;5071771;27;49705;-67
2021/11/29 13:15:54;;;;;;;;;10.00;8.75;;;;;;;;5072037;28;49862;-67
2021/11/29 13:18:38;;;;;;;;;6.00;6.00;;;;;;;;5071166;27;50991;-67
2021/11/29 13:21:04;;;;;;;;;6.00;6.00;;;;;;;;5071205;27;49666;-68
2021/11/29 13:23:29;;;;;;;;;9.75;9.75;;;;;;;;5071285;27;49969;-67
2021/11/29 13:26:04;;;;;;;;;7.75;7.75;;;;;;;;5071597;27;49730;-67
2021/11/29 13:28:29;;;;;;;;;7.25;6.25;;;;;;;;5071323;27;50910;-67
2021/11/29 13:30:55;;;;;;;;;7.00;6.00;;;;;;;;5071120;27;49616;-67
2021/11/29 13:33:20;;;;;;;;;6.25;6.25;;;;;;;;5071471;27;49786;-67
2021/11/29 13:35:45;;;;;;;;;6.25;6.25;;;;;;;;5071067;27;49632;-67
2021/11/29 13:38:11;;;;;;;;;7.25;6.25;;;;;;;;5070848;27;49616;-67
2021/11/29 13:40:36;;;;;;;;;3.00;3.00;;;;;;;;5070984;27;49666;-68
2021/11/29 13:43:03;;;;;;;;;10.75;8.00;;;;;;;;5071042;27;49628;-69
2021/11/29 13:45:31;;;;;;;;;8.00;2.75;;;;;;;;5071206;27;49695;-68
2021/11/29 13:47:59;;;;;;;;;10.00;5.75;;;;;;;;5070911;27;49705;-68
2021/11/29 13:50:26;;;;;;;;;9.50;8.00;;;;;;;;5070775;27;49698;-68
2021/11/29 13:52:53;;;;;;;;;9.50;7.00;;;;;;;;5071001;27;49648;-67
2021/11/29 13:55:22;;;;;;;;;4.00;4.00;;;;;;;;5071403;27;49865;-68
2021/11/29 13:57:49;;;;;;;;;7.00;7.00;;;;;;;;5070708;27;50243;-67
2021/11/29 14:00:15;;;;;;;;;5.00;5.00;;;;;;;;5071242;27;49691;-70
2021/11/29 14:02:41;;;;;;;;;5.25;3.50;;;;;;;;5072070;27;49869;-70
2021/11/29 14:05:06;;;;;;;;;3.00;1.75;;;;;;;;5073089;27;49590;-70
2021/11/29 14:07:50;;;;;;;;;4.50;4.50;;;;;;;;5072694;27;49757;-70
2021/11/29 14:10:15;;;;;;;;;6.50;4.00;;;;;;;;5070711;27;49737;-70
2021/11/29 14:12:47;;;;;;;;;5.00;5.00;;;;;;;;5070625;27;49698;-70
2021/11/29 14:15:12;;;;;;;;;7.00;4.00;;;;;;;;5069436;28;50005;-71
2021/11/29 14:17:42;;;;;;;;;5.00;4.50;;;;;;;;5070303;27;50278;-70
2021/11/29 14:20:12;;;;;;;;;6.00;6.00;;;;;;;;5070455;27;49859;-71